Adelphi, Ohio
Current Conditions -  °F | °C
As of 10:54 AM on Sunday 23 Nov 2014 (Local Time) from KRZT Reporting Station
Clear Clear  
Wind Chill: 54°   Ceiling: Unl
Heat Index: 54°   Visibility: 10mi
Dew Point: 30°   Wind: 9mph
Humidity: 41%   Direction: 170°S
Pressure: 29.96"   Gusts: 16mph
Location:  39.47°N, 82.75°W
Report Text: KRZT 231554Z AUTO 17008G14KT 10SM CLR 12/M01 A2996 RMK AO2
Loading
Personal Weather Stations






























Interactive Weather Map New forecast layout! Learn more

10-Day Weather Forecast

Advertisements
Track Severe Weather on mobile